Time;durP1;ratioP1;P1;durP2;ratioP2;P2;SDS_P1;SDS_P2;PMS_P1;PMS_P2;Temp;Humidity;BMP_temperature;BMP_pressure;BME280_temperature;BME280_humidity;BME280_pressure;Samples;Min_cycle;Max_cycle;Signal;HPM_P1;HPM_P2
2023/02/04 00:00:37;;;;;;;13.35;2.17;;;;;14.70;103037.00;;;;5086674;28;20194;-74
2023/02/04 00:03:05;;;;;;;8.25;1.98;;;;;14.70;103035.00;;;;5089265;28;20417;-74
2023/02/04 00:05:32;;;;;;;5.60;1.95;;;;;14.70;103042.00;;;;5088577;28;20198;-74
2023/02/04 00:08:01;;;;;;;9.07;1.52;;;;;14.70;103045.00;;;;5086096;28;20194;-74
2023/02/04 00:10:28;;;;;;;13.00;1.83;;;;;14.70;103048.00;;;;5076736;28;20194;-74
2023/02/04 00:12:55;;;;;;;6.93;1.65;;;;;14.70;103041.00;;;;5086942;28;20237;-74
2023/02/04 00:15:23;;;;;;;5.95;1.90;;;;;14.70;103047.00;;;;5088848;28;20197;-74
2023/02/04 00:17:50;;;;;;;9.60;2.03;;;;;14.60;103055.00;;;;5088627;28;20198;-74
2023/02/04 00:20:18;;;;;;;9.02;1.45;;;;;14.60;103050.00;;;;5072842;28;20281;-74
2023/02/04 00:22:45;;;;;;;9.50;1.50;;;;;14.60;103051.00;;;;5068281;28;20257;-74
2023/02/04 00:25:14;;;;;;;6.80;1.35;;;;;14.60;103065.00;;;;5073766;28;20195;-74
2023/02/04 00:27:41;;;;;;;6.05;1.63;;;;;14.60;103063.00;;;;5073007;28;20199;-74
2023/02/04 00:30:10;;;;;;;7.03;1.63;;;;;14.50;103065.00;;;;5087270;28;20221;-74
2023/02/04 00:32:37;;;;;;;6.43;1.65;;;;;14.50;103066.00;;;;5084676;28;20217;-74
2023/02/04 00:35:05;;;;;;;5.53;1.48;;;;;14.50;103068.00;;;;5076481;28;20195;-74
2023/02/04 00:37:32;;;;;;;7.50;1.55;;;;;14.50;103062.00;;;;5085037;28;20279;-74
2023/02/04 00:39:59;;;;;;;7.30;1.30;;;;;14.40;103060.00;;;;5068101;28;20190;-74
2023/02/04 00:42:28;;;;;;;9.10;1.80;;;;;14.40;103067.00;;;;5084944;28;20198;-74
2023/02/04 00:44:55;;;;;;;7.63;1.27;;;;;14.30;103072.00;;;;5081321;28;20198;-74
2023/02/04 00:47:23;;;;;;;6.32;1.63;;;;;14.30;103070.00;;;;5068437;28;20598;-74
2023/02/04 00:49:50;;;;;;;7.68;1.60;;;;;14.20;103078.00;;;;5076835;28;20389;-74
2023/02/04 00:52:17;;;;;;;6.30;1.17;;;;;14.20;103088.00;;;;5084033;28;20195;-74
2023/02/04 00:54:44;;;;;;;7.25;2.13;;;;;14.10;103083.00;;;;5068121;28;20218;-74
2023/02/04 00:57:12;;;;;;;13.05;3.05;;;;;14.10;103085.00;;;;5084111;28;20205;-74
2023/02/04 00:59:40;;;;;;;5.70;1.30;;;;;14.10;103085.00;;;;5086058;28;20195;-74
2023/02/04 01:02:08;;;;;;;5.15;1.48;;;;;14.00;103093.00;;;;5080038;28;20194;-74
2023/02/04 01:04:35;;;;;;;6.75;2.13;;;;;14.00;103088.00;;;;5071198;28;20202;-74
2023/02/04 01:07:02;;;;;;;9.52;2.22;;;;;14.00;103093.00;;;;5070928;28;20198;-74
2023/02/04 01:09:30;;;;;;;13.23;1.70;;;;;14.00;103099.00;;;;5079280;28;20650;-74
2023/02/04 01:11:57;;;;;;;5.90;2.17;;;;;13.90;103095.00;;;;5081765;28;20197;-74
2023/02/04 01:14:24;;;;;;;12.18;1.73;;;;;13.90;103093.00;;;;5090270;28;20229;-74
2023/02/04 01:16:53;;;;;;;6.30;1.60;;;;;13.90;103098.00;;;;5090940;28;20202;-74
2023/02/04 01:19:20;;;;;;;7.40;1.63;;;;;13.90;103111.00;;;;5089087;28;20214;-74
2023/02/04 01:21:48;;;;;;;8.25;1.30;;;;;13.90;103111.00;;;;5070660;28;20244;-74
2023/02/04 01:24:15;;;;;;;9.00;1.92;;;;;13.90;103112.00;;;;5079828;28;20213;-74
2023/02/04 01:26:42;;;;;;;7.22;1.58;;;;;13.90;103119.00;;;;5083073;28;20680;-74
2023/02/04 01:29:11;;;;;;;8.40;2.20;;;;;13.80;103125.00;;;;5070541;28;20347;-74
2023/02/04 01:31:38;;;;;;;6.72;1.40;;;;;13.80;103127.00;;;;5081964;28;20255;-74
2023/02/04 01:34:07;;;;;;;9.48;1.45;;;;;13.80;103120.00;;;;5089872;28;20712;-74
2023/02/04 01:36:34;;;;;;;12.98;2.15;;;;;13.80;103124.00;;;;5086480;28;20207;-74
2023/02/04 01:39:02;;;;;;;9.70;1.20;;;;;13.80;103124.00;;;;5070601;28;20202;-74
2023/02/04 01:41:29;;;;;;;10.15;1.73;;;;;13.80;103131.00;;;;5070848;28;20195;-74
2023/02/04 01:43:57;;;;;;;9.80;1.70;;;;;13.70;103133.00;;;;5078187;28;20203;-74
2023/02/04 01:46:25;;;;;;;9.73;1.73;;;;;13.70;103139.00;;;;5077497;28;20231;-74
2023/02/04 01:48:53;;;;;;;7.82;1.85;;;;;13.70;103144.00;;;;5074357;28;20209;-74
2023/02/04 01:51:30;;;;;;;6.82;1.73;;;;;13.60;103144.00;;;;5088590;28;20210;-74
2023/02/04 01:53:58;;;;;;;8.32;1.92;;;;;13.70;103144.00;;;;5088789;28;20230;-74
2023/02/04 01:56:27;;;;;;;9.85;1.70;;;;;13.60;103147.00;;;;5090136;28;20200;-74
2023/02/04 01:58:56;;;;;;;11.95;1.73;;;;;13.60;103146.00;;;;5071472;28;20202;-74
2023/02/04 02:01:36;;;;;;;8.13;1.98;;;;;13.50;103146.00;;;;5086591;28;20225;-74
2023/02/04 02:04:04;;;;;;;12.45;2.17;;;;;13.60;103155.00;;;;5072026;28;20206;-74
2023/02/04 02:06:33;;;;;;;9.57;1.75;;;;;13.60;103159.00;;;;5076201;28;20198;-74
2023/02/04 02:09:01;;;;;;;15.75;1.95;;;;;13.60;103159.00;;;;5077456;28;20423;-74
2023/02/04 02:11:29;;;;;;;8.98;2.00;;;;;13.60;103152.00;;;;5085089;28;20195;-74
2023/02/04 02:13:56;;;;;;;7.50;1.40;;;;;13.60;103163.00;;;;5076244;28;20218;-74
2023/02/04 02:16:24;;;;;;;12.70;2.95;;;;;13.60;103165.00;;;;5089140;28;20195;-74
2023/02/04 02:18:53;;;;;;;6.10;1.85;;;;;13.60;103162.00;;;;5090623;28;21289;-74
2023/02/04 02:21:27;;;;;;;17.52;2.17;;;;;13.50;103170.00;;;;5089750;28;20609;-74
2023/02/04 02:23:59;;;;;;;9.18;1.90;;;;;13.50;103166.00;;;;5085136;28;20199;-74
2023/02/04 02:26:27;;;;;;;10.68;3.08;;;;;13.50;103166.00;;;;5073025;28;20205;-74
2023/02/04 02:28:55;;;;;;;11.63;2.05;;;;;13.50;103170.00;;;;5074925;28;20210;-74
2023/02/04 02:31:23;;;;;;;10.45;2.25;;;;;13.50;103164.00;;;;5070094;28;20214;-74
2023/02/04 02:33:50;;;;;;;9.32;1.83;;;;;13.50;103161.00;;;;5080911;28;20222;-74
2023/02/04 02:36:18;;;;;;;7.80;1.63;;;;;13.50;103174.00;;;;5088439;28;20781;-74
2023/02/04 02:38:46;;;;;;;8.82;1.83;;;;;13.50;103169.00;;;;5079254;28;20199;-74
2023/02/04 02:41:14;;;;;;;12.90;2.42;;;;;13.50;103175.00;;;;5069615;28;20205;-74
2023/02/04 02:43:42;;;;;;;17.95;2.40;;;;;13.50;103169.00;;;;5079148;28;20209;-74
2023/02/04 02:46:09;;;;;;;10.60;2.28;;;;;13.50;103172.00;;;;5088236;28;20234;-74
2023/02/04 02:48:36;;;;;;;13.40;2.28;;;;;13.60;103169.00;;;;5088694;28;20202;-74
2023/02/04 02:51:04;;;;;;;11.02;2.20;;;;;13.60;103166.00;;;;5076494;28;20202;-74
2023/02/04 02:53:31;;;;;;;11.85;2.25;;;;;13.60;103177.00;;;;5079187;28;20569;-74
2023/02/04 02:56:00;;;;;;;7.32;1.80;;;;;13.60;103171.00;;;;5071105;28;20984;-74
2023/02/04 02:58:32;;;;;;;9.13;2.58;;;;;13.60;103170.00;;;;5085578;28;20198;-74
2023/02/04 03:01:00;;;;;;;7.88;1.65;;;;;13.60;103175.00;;;;5087253;28;20221;-74
2023/02/04 03:03:30;;;;;;;10.27;2.45;;;;;13.60;103179.00;;;;5068853;28;20209;-74
2023/02/04 03:06:01;;;;;;;13.10;2.38;;;;;13.60;103179.00;;;;5089348;28;20190;-74
2023/02/04 03:08:28;;;;;;;7.85;1.75;;;;;13.60;103185.00;;;;5089102;28;20202;-74
2023/02/04 03:10:56;;;;;;;12.07;2.10;;;;;13.60;103189.00;;;;5089593;28;20198;-74
2023/02/04 03:13:23;;;;;;;14.63;2.00;;;;;13.60;103180.00;;;;5082371;28;20324;-74
2023/02/04 03:15:53;;;;;;;11.13;2.03;;;;;13.60;103190.00;;;;5076014;28;20657;-74
2023/02/04 03:18:21;;;;;;;12.43;2.20;;;;;13.70;103184.00;;;;5083202;28;20214;-74
2023/02/04 03:20:50;;;;;;;9.45;2.00;;;;;13.60;103190.00;;;;5087792;28;20209;-73
2023/02/04 03:23:18;;;;;;;7.50;1.63;;;;;13.60;103192.00;;;;5076306;28;20206;-74
2023/02/04 03:25:46;;;;;;;10.05;2.25;;;;;13.60;103196.00;;;;5086952;28;20224;-74
2023/02/04 03:28:13;;;;;;;9.68;1.80;;;;;13.60;103190.00;;;;5074305;28;20199;-74
2023/02/04 03:30:40;;;;;;;10.02;1.60;;;;;13.60;103187.00;;;;5071865;28;20198;-74
2023/02/04 03:33:09;;;;;;;10.20;2.17;;;;;13.60;103186.00;;;;5067760;28;20202;-74
2023/02/04 03:35:36;;;;;;;9.38;2.13;;;;;13.50;103181.00;;;;5079839;28;20210;-74
2023/02/04 03:38:04;;;;;;;10.23;1.92;;;;;13.50;103187.00;;;;5068274;28;20687;-74
2023/02/04 03:40:31;;;;;;;7.63;2.10;;;;;13.50;103190.00;;;;5068679;28;20195;-74
2023/02/04 03:42:58;;;;;;;8.68;2.00;;;;;13.50;103191.00;;;;5084347;28;20206;-74
2023/02/04 03:45:26;;;;;;;13.50;2.45;;;;;13.50;103192.00;;;;5073247;28;20594;-74
2023/02/04 03:47:53;;;;;;;8.50;2.03;;;;;13.50;103193.00;;;;5083527;28;20202;-74
2023/02/04 03:50:21;;;;;;;12.27;2.38;;;;;13.50;103189.00;;;;5083103;28;20198;-74
2023/02/04 03:52:50;;;;;;;12.48;2.03;;;;;13.50;103194.00;;;;5087094;28;20202;-74
2023/02/04 03:55:17;;;;;;;6.47;1.60;;;;;13.50;103190.00;;;;5087894;28;20241;-74
2023/02/04 03:57:45;;;;;;;12.07;2.78;;;;;13.50;103189.00;;;;5081569;28;20190;-74
2023/02/04 04:00:13;;;;;;;7.28;1.65;;;;;13.40;103198.00;;;;5078384;28;20202;-74
2023/02/04 04:02:40;;;;;;;7.30;1.88;;;;;13.40;103198.00;;;;5067583;28;20206;-74
2023/02/04 04:05:09;;;;;;;8.00;1.48;;;;;13.30;103194.00;;;;5067248;28;20583;-74
2023/02/04 04:07:38;;;;;;;8.25;2.15;;;;;13.30;103195.00;;;;5074823;28;20217;-74
2023/02/04 04:10:06;;;;;;;7.25;1.42;;;;;13.30;103198.00;;;;5079213;28;20211;-74
2023/02/04 04:12:33;;;;;;;6.28;1.80;;;;;13.30;103191.00;;;;5087482;28;20205;-74
2023/02/04 04:15:00;;;;;;;6.90;1.27;;;;;13.20;103201.00;;;;5079013;28;20214;-74
2023/02/04 04:17:28;;;;;;;6.15;2.00;;;;;13.20;103199.00;;;;5070278;28;20195;-74
2023/02/04 04:19:55;;;;;;;8.38;1.45;;;;;13.20;103207.00;;;;5068082;28;20206;-74
2023/02/04 04:22:22;;;;;;;8.38;1.60;;;;;13.10;103206.00;;;;5074617;28;20205;-74
2023/02/04 04:24:51;;;;;;;5.63;1.65;;;;;13.10;103207.00;;;;5087929;28;21002;-74
2023/02/04 04:27:18;;;;;;;8.95;2.00;;;;;13.10;103203.00;;;;5084871;28;20190;-74
2023/02/04 04:29:46;;;;;;;8.38;1.45;;;;;13.00;103203.00;;;;5077988;28;20222;-74
2023/02/04 04:32:13;;;;;;;5.85;1.25;;;;;13.00;103211.00;;;;5073621;28;20210;-74
2023/02/04 04:34:40;;;;;;;6.47;1.30;;;;;12.90;103213.00;;;;5091895;28;20221;-74
2023/02/04 04:37:08;;;;;;;10.45;1.88;;;;;12.90;103204.00;;;;5091790;28;20194;-74
2023/02/04 04:39:35;;;;;;;6.95;1.50;;;;;12.90;103218.00;;;;5087142;28;20194;-74
2023/02/04 04:42:04;;;;;;;14.88;1.80;;;;;12.80;103213.00;;;;5088171;28;20197;-74
2023/02/04 04:44:31;;;;;;;5.93;1.48;;;;;12.80;103209.00;;;;5078368;28;20206;-74
2023/02/04 04:46:58;;;;;;;5.40;1.45;;;;;12.80;103216.00;;;;5081878;28;20230;-74
2023/02/04 04:49:25;;;;;;;5.10;1.23;;;;;12.80;103218.00;;;;5084477;28;20194;-74
2023/02/04 04:51:53;;;;;;;7.43;1.67;;;;;12.80;103215.00;;;;5083561;28;20195;-74
2023/02/04 04:54:20;;;;;;;9.05;2.42;;;;;12.70;103219.00;;;;5071541;28;20234;-74
2023/02/04 04:56:47;;;;;;;5.93;2.10;;;;;12.70;103220.00;;;;5071736;28;20202;-74
2023/02/04 04:59:17;;;;;;;5.63;1.50;;;;;12.70;103222.00;;;;5071557;28;20575;-74
2023/02/04 05:01:44;;;;;;;7.90;1.63;;;;;12.70;103219.00;;;;5077864;28;20214;-74
2023/02/04 05:04:12;;;;;;;7.95;1.27;;;;;12.70;103220.00;;;;5092121;28;20194;-74
2023/02/04 05:06:39;;;;;;;7.40;1.42;;;;;12.70;103210.00;;;;5085695;28;20210;-73
2023/02/04 05:09:08;;;;;;;5.28;1.65;;;;;12.70;103219.00;;;;5078864;28;20194;-74
2023/02/04 05:11:36;;;;;;;7.28;1.25;;;;;12.70;103223.00;;;;5071656;28;20207;-74
2023/02/04 05:14:03;;;;;;;6.40;1.73;;;;;12.70;103216.00;;;;5084144;28;20214;-74
2023/02/04 05:16:32;;;;;;;6.53;1.60;;;;;12.70;103208.00;;;;5080543;28;20205;-74
2023/02/04 05:18:59;;;;;;;10.48;1.63;;;;;12.80;103217.00;;;;5079542;28;20203;-74
2023/02/04 05:21:26;;;;;;;6.10;1.92;;;;;12.80;103218.00;;;;5083779;28;20194;-74
2023/02/04 05:23:53;;;;;;;5.40;1.17;;;;;12.80;103227.00;;;;5090772;28;20206;-74
2023/02/04 05:26:21;;;;;;;10.57;1.90;;;;;12.80;103229.00;;;;5089548;28;20213;-74
2023/02/04 05:28:48;;;;;;;10.18;1.77;;;;;12.80;103233.00;;;;5070734;28;20195;-74
2023/02/04 05:31:15;;;;;;;15.52;2.53;;;;;12.80;103234.00;;;;5087307;28;20199;-74
2023/02/04 05:33:44;;;;;;;6.30;1.38;;;;;12.80;103235.00;;;;5078059;28;20202;-74
2023/02/04 05:36:11;;;;;;;5.25;1.17;;;;;12.90;103235.00;;;;5079812;28;20190;-74
2023/02/04 05:38:39;;;;;;;4.72;1.27;;;;;12.90;103232.00;;;;5070130;28;20210;-74
2023/02/04 05:41:06;;;;;;;6.35;1.65;;;;;12.90;103235.00;;;;5079316;28;20687;-74
2023/02/04 05:43:34;;;;;;;5.80;1.52;;;;;12.90;103236.00;;;;5090073;28;20201;-74
2023/02/04 05:46:01;;;;;;;7.10;1.10;;;;;12.90;103230.00;;;;5086328;28;20226;-74
2023/02/04 05:48:28;;;;;;;4.32;1.58;;;;;13.00;103231.00;;;;5069404;28;20902;-74
2023/02/04 05:50:57;;;;;;;11.27;1.80;;;;;13.00;103236.00;;;;5078133;28;20199;-74
2023/02/04 05:53:25;;;;;;;6.43;1.58;;;;;13.00;103242.00;;;;5083413;28;20213;-74
2023/02/04 05:55:53;;;;;;;10.45;1.70;;;;;13.00;103244.00;;;;5077109;28;20242;-74
2023/02/04 05:58:20;;;;;;;5.78;1.17;;;;;13.00;103252.00;;;;5081668;28;20198;-74
2023/02/04 06:00:47;;;;;;;5.63;2.28;;;;;13.00;103250.00;;;;5085082;28;20572;-74
2023/02/04 06:03:15;;;;;;;9.10;1.60;;;;;13.00;103260.00;;;;5086329;28;20198;-74
2023/02/04 06:05:43;;;;;;;7.10;1.58;;;;;13.00;103267.00;;;;5089659;28;20202;-74
2023/02/04 06:08:14;;;;;;;9.27;1.42;;;;;13.00;103267.00;;;;5080439;28;20263;-74
2023/02/04 06:10:42;;;;;;;9.52;1.40;;;;;13.00;103272.00;;;;5072398;28;20202;-74
2023/02/04 06:13:09;;;;;;;5.07;1.20;;;;;13.00;103269.00;;;;5070560;28;20191;-74
2023/02/04 06:15:36;;;;;;;9.27;1.58;;;;;13.00;103284.00;;;;5070728;28;20227;-74
2023/02/04 06:18:04;;;;;;;11.80;2.13;;;;;13.00;103290.00;;;;5073863;28;20267;-74
2023/02/04 06:20:31;;;;;;;8.70;2.47;;;;;13.00;103291.00;;;;5079904;28;20683;-74
2023/02/04 06:22:58;;;;;;;10.13;1.55;;;;;13.10;103288.00;;;;5086520;28;20217;-74
2023/02/04 06:25:27;;;;;;;6.53;1.92;;;;;13.10;103292.00;;;;5075309;28;20209;-75
2023/02/04 06:27:54;;;;;;;7.78;1.95;;;;;13.10;103299.00;;;;5083018;28;20197;-74
2023/02/04 06:30:22;;;;;;;5.35;1.90;;;;;13.10;103293.00;;;;5083316;28;20195;-74
2023/02/04 06:32:49;;;;;;;6.65;1.80;;;;;13.10;103304.00;;;;5084630;28;20209;-74
2023/02/04 06:35:16;;;;;;;6.85;2.05;;;;;13.10;103306.00;;;;5089593;28;20222;-74
2023/02/04 06:37:44;;;;;;;8.50;2.58;;;;;13.20;103313.00;;;;5086364;28;20664;-74
2023/02/04 06:40:12;;;;;;;7.93;1.95;;;;;13.20;103310.00;;;;5080206;28;20202;-74
2023/02/04 06:42:41;;;;;;;9.25;1.75;;;;;13.20;103320.00;;;;5086226;28;20575;-74
2023/02/04 06:45:08;;;;;;;6.97;2.03;;;;;13.20;103320.00;;;;5080943;28;20199;-75
2023/02/04 06:47:36;;;;;;;7.45;3.30;;;;;13.20;103327.00;;;;5075306;28;20225;-75
2023/02/04 06:50:03;;;;;;;11.73;3.58;;;;;13.20;103330.00;;;;5078670;28;20205;-75
2023/02/04 06:52:30;;;;;;;8.27;2.15;;;;;13.20;103331.00;;;;5083655;28;20194;-75
2023/02/04 06:54:57;;;;;;;7.55;2.03;;;;;13.30;103332.00;;;;5087467;28;20233;-75
2023/02/04 06:57:25;;;;;;;7.65;2.92;;;;;13.30;103326.00;;;;5089043;28;20203;-75
2023/02/04 06:59:53;;;;;;;10.20;2.42;;;;;13.20;103342.00;;;;5071819;28;20187;-75
2023/02/04 07:02:21;;;;;;;9.98;2.97;;;;;13.30;103337.00;;;;5080912;28;20198;-75
2023/02/04 07:04:48;;;;;;;9.02;2.60;;;;;13.30;103336.00;;;;5078034;28;20203;-76
2023/02/04 07:07:15;;;;;;;14.07;4.85;;;;;13.30;103338.00;;;;5074834;28;20293;-76
2023/02/04 07:09:43;;;;;;;13.70;4.50;;;;;13.30;103341.00;;;;5069152;28;20194;-74
2023/02/04 07:12:10;;;;;;;12.75;3.97;;;;;13.30;103345.00;;;;5074257;28;20205;-73
2023/02/04 07:14:37;;;;;;;12.70;4.07;;;;;13.30;103350.00;;;;5075361;28;20222;-73
2023/02/04 07:17:06;;;;;;;10.63;3.80;;;;;13.30;103343.00;;;;5069438;28;20211;-73
2023/02/04 07:19:34;;;;;;;8.63;3.47;;;;;13.30;103342.00;;;;5077894;28;20209;-73
2023/02/04 07:22:01;;;;;;;8.93;2.83;;;;;13.40;103344.00;;;;5089021;28;20623;-73
2023/02/04 07:24:28;;;;;;;9.73;3.10;;;;;13.40;103349.00;;;;5087414;28;20213;-73
2023/02/04 07:26:56;;;;;;;10.13;4.00;;;;;13.40;103355.00;;;;5078637;28;20211;-73
2023/02/04 07:29:24;;;;;;;11.95;3.17;;;;;13.40;103347.00;;;;5073590;28;20207;-73
2023/02/04 07:31:51;;;;;;;9.65;3.53;;;;;13.40;103354.00;;;;5086852;28;20668;-73
2023/02/04 07:34:20;;;;;;;12.20;3.22;;;;;13.40;103353.00;;;;5075186;28;20203;-73
2023/02/04 07:36:47;;;;;;;16.45;3.72;;;;;13.40;103355.00;;;;5072042;28;20199;-74
2023/02/04 07:39:15;;;;;;;14.07;3.20;;;;;13.50;103358.00;;;;5069212;28;20665;-73
2023/02/04 07:41:42;;;;;;;10.65;3.00;;;;;13.50;103365.00;;;;5084959;28;20205;-72
2023/02/04 07:44:09;;;;;;;7.88;2.97;;;;;13.50;103366.00;;;;5088591;28;20198;-73
2023/02/04 07:46:36;;;;;;;9.23;3.42;;;;;13.50;103374.00;;;;5088505;28;20592;-73
2023/02/04 07:49:04;;;;;;;8.60;3.33;;;;;13.60;103377.00;;;;5079843;28;20679;-73
2023/02/04 07:51:33;;;;;;;8.57;3.35;;;;;13.60;103377.00;;;;5087375;28;20206;-73
2023/02/04 07:54:01;;;;;;;8.90;3.40;;;;;13.60;103384.00;;;;5088522;28;20687;-73
2023/02/04 07:56:28;;;;;;;9.00;3.58;;;;;13.60;103383.00;;;;5087809;28;20233;-73
2023/02/04 07:58:55;;;;;;;15.30;5.00;;;;;13.60;103393.00;;;;5088683;28;20202;-73
2023/02/04 08:01:23;;;;;;;10.15;4.88;;;;;13.70;103392.00;;;;5087319;28;20194;-73
2023/02/04 08:03:50;;;;;;;16.88;5.78;;;;;13.70;103394.00;;;;5077798;28;20484;-73
2023/02/04 08:06:17;;;;;;;9.75;4.78;;;;;13.70;103402.00;;;;5069848;28;20206;-73
2023/02/04 08:08:46;;;;;;;13.07;4.53;;;;;13.70;103396.00;;;;5079643;28;20198;-74
2023/02/04 08:11:13;;;;;;;9.18;4.00;;;;;13.80;103404.00;;;;5080495;28;20203;-73
2023/02/04 08:13:40;;;;;;;9.45;4.75;;;;;13.80;103411.00;;;;5073726;28;20195;-73
2023/02/04 08:16:08;;;;;;;12.95;4.10;;;;;13.80;103412.00;;;;5087774;28;20214;-74
2023/02/04 08:18:35;;;;;;;14.88;4.63;;;;;13.90;103416.00;;;;5073769;28;20199;-74
2023/02/04 08:21:03;;;;;;;11.57;4.47;;;;;13.90;103412.00;;;;5078884;28;20270;-73
2023/02/04 08:23:31;;;;;;;10.05;4.00;;;;;13.90;103419.00;;;;5077993;28;20195;-74
2023/02/04 08:26:00;;;;;;;12.18;4.43;;;;;13.90;103425.00;;;;5077409;28;20205;-73
2023/02/04 08:28:27;;;;;;;12.15;4.43;;;;;14.00;103423.00;;;;5072530;28;20203;-73
2023/02/04 08:30:55;;;;;;;15.75;5.15;;;;;14.00;103425.00;;;;5078618;28;20194;-74
2023/02/04 08:33:22;;;;;;;10.88;4.57;;;;;14.10;103426.00;;;;5075524;28;20261;-73
2023/02/04 08:35:50;;;;;;;9.90;3.83;;;;;14.10;103430.00;;;;5081101;28;20564;-73
2023/02/04 08:38:18;;;;;;;8.98;4.32;;;;;14.20;103433.00;;;;5079717;28;20606;-74
2023/02/04 08:40:45;;;;;;;10.93;3.47;;;;;14.20;103436.00;;;;5077726;28;20277;-75
2023/02/04 08:43:14;;;;;;;9.77;3.40;;;;;14.30;103442.00;;;;5082256;28;20213;-74
2023/02/04 08:45:41;;;;;;;7.88;3.13;;;;;14.30;103436.00;;;;5086249;28;20217;-74
2023/02/04 08:48:08;;;;;;;13.20;3.42;;;;;14.30;103438.00;;;;5077151;28;20191;-74
2023/02/04 08:50:35;;;;;;;12.77;3.13;;;;;14.40;103437.00;;;;5073317;28;20198;-74
2023/02/04 08:53:03;;;;;;;10.10;3.17;;;;;14.40;103438.00;;;;5070328;28;20198;-74
2023/02/04 08:55:30;;;;;;;13.50;4.10;;;;;14.50;103441.00;;;;5082743;28;20226;-74
2023/02/04 08:57:57;;;;;;;9.85;3.45;;;;;14.50;103450.00;;;;5075042;28;20221;-74
2023/02/04 09:00:26;;;;;;;9.77;3.95;;;;;14.60;103448.00;;;;5067861;28;20214;-74
2023/02/04 09:02:53;;;;;;;12.63;3.67;;;;;14.60;103445.00;;;;5075811;28;20198;-74
2023/02/04 09:05:21;;;;;;;12.65;3.40;;;;;14.70;103452.00;;;;5082583;28;20207;-74
2023/02/04 09:07:48;;;;;;;13.50;3.05;;;;;14.70;103454.00;;;;5069269;28;20207;-74
2023/02/04 09:10:16;;;;;;;8.30;3.22;;;;;14.70;103456.00;;;;5068121;28;20191;-74
2023/02/04 09:12:43;;;;;;;10.90;3.38;;;;;14.80;103457.00;;;;5075261;28;20205;-74
2023/02/04 09:15:11;;;;;;;9.10;2.40;;;;;14.80;103450.00;;;;5087125;28;20209;-74
2023/02/04 09:17:42;;;;;;;11.80;3.15;;;;;14.90;103465.00;;;;5080565;28;20195;-74
2023/02/04 09:20:11;;;;;;;12.73;3.22;;;;;14.90;103461.00;;;;5081168;28;20198;-75
2023/02/04 09:22:38;;;;;;;9.95;2.47;;;;;15.00;103466.00;;;;5088287;28;20232;-75
2023/02/04 09:25:07;;;;;;;8.93;2.83;;;;;15.10;103460.00;;;;5084438;28;20195;-74
2023/02/04 09:27:34;;;;;;;10.20;3.60;;;;;15.10;103462.00;;;;5072067;28;20628;-75
2023/02/04 09:30:02;;;;;;;14.18;3.33;;;;;15.20;103467.00;;;;5070964;28;20195;-74
2023/02/04 09:32:30;;;;;;;12.05;3.17;;;;;15.20;103464.00;;;;5071164;28;20214;-75
2023/02/04 09:34:58;;;;;;;9.07;2.17;;;;;15.20;103462.00;;;;5088107;28;20208;-74
2023/02/04 09:37:28;;;;;;;13.90;2.17;;;;;15.30;103460.00;;;;5079331;28;20206;-74
2023/02/04 09:39:55;;;;;;;12.10;2.58;;;;;15.40;103463.00;;;;5077194;28;20207;-74
2023/02/04 09:42:25;;;;;;;10.80;2.45;;;;;15.40;103461.00;;;;5081179;28;20206;-75
2023/02/04 09:44:52;;;;;;;16.00;2.50;;;;;15.40;103469.00;;;;5076412;28;20195;-75
2023/02/04 09:47:23;;;;;;;13.15;3.35;;;;;15.40;103472.00;;;;5079805;28;20235;-75
2023/02/04 09:49:51;;;;;;;10.38;2.72;;;;;15.50;103471.00;;;;5090224;28;20202;-75
2023/02/04 09:52:23;;;;;;;8.93;2.50;;;;;15.60;103472.00;;;;5082874;28;20863;-75
2023/02/04 09:54:50;;;;;;;7.90;1.80;;;;;15.60;103475.00;;;;5091153;28;20222;-75
2023/02/04 09:57:19;;;;;;;15.68;2.40;;;;;15.60;103475.00;;;;5076076;28;20287;-75
2023/02/04 09:59:47;;;;;;;14.52;2.50;;;;;15.70;103479.00;;;;5084532;28;20713;-75
2023/02/04 10:02:24;;;;;;;13.80;2.08;;;;;15.70;103480.00;;;;5089401;28;20213;-74
2023/02/04 10:04:56;;;;;;;11.70;2.33;;;;;15.80;103476.00;;;;5090143;28;20202;-75
2023/02/04 10:07:26;;;;;;;9.43;2.00;;;;;15.80;103482.00;;;;5070541;28;20285;-75
2023/02/04 10:09:54;;;;;;;5.45;1.88;;;;;15.90;103489.00;;;;5070840;28;20681;-75
2023/02/04 10:12:22;;;;;;;9.45;1.73;;;;;15.90;103489.00;;;;5075699;28;20560;-74
2023/02/04 10:14:50;;;;;;;9.60;2.20;;;;;15.90;103486.00;;;;5088492;28;20209;-74
2023/02/04 10:17:21;;;;;;;10.38;1.65;;;;;16.00;103487.00;;;;5081787;28;20219;-74
2023/02/04 10:19:49;;;;;;;10.95;2.47;;;;;16.00;103489.00;;;;5081202;28;20664;-75
2023/02/04 10:22:19;;;;;;;8.15;1.90;;;;;16.10;103492.00;;;;5087685;28;20806;-75
2023/02/04 10:24:48;;;;;;;10.55;2.63;;;;;16.10;103498.00;;;;5090355;28;20197;-74
2023/02/04 10:27:16;;;;;;;9.00;2.55;;;;;16.20;103489.00;;;;5082993;28;20202;-75
2023/02/04 10:29:54;;;;;;;9.70;2.75;;;;;16.20;103490.00;;;;5073147;28;20252;-75
2023/02/04 10:32:27;;;;;;;10.57;2.25;;;;;16.20;103496.00;;;;5080051;28;20195;-75
2023/02/04 10:34:59;;;;;;;7.60;1.77;;;;;16.30;103488.00;;;;5075998;28;20502;-74
2023/02/04 10:37:26;;;;;;;14.00;2.42;;;;;16.30;103499.00;;;;5073174;28;20225;-75
2023/02/04 10:39:55;;;;;;;9.82;1.80;;;;;16.30;103498.00;;;;5086771;28;20194;-75
2023/02/04 10:42:24;;;;;;;12.95;2.38;;;;;16.30;103495.00;;;;5085690;28;20205;-75
2023/02/04 10:44:51;;;;;;;8.95;1.40;;;;;16.30;103496.00;;;;5089907;28;20190;-75
2023/02/04 10:47:21;;;;;;;8.68;1.38;;;;;16.30;103493.00;;;;5082701;28;20242;-75
2023/02/04 10:49:57;;;;;;;9.27;1.38;;;;;16.30;103499.00;;;;5069778;28;20202;-75
2023/02/04 10:52:30;;;;;;;9.80;2.08;;;;;16.40;103493.00;;;;5077655;28;20194;-75
2023/02/04 10:54:57;;;;;;;7.50;2.42;;;;;16.40;103497.00;;;;5088829;28;20714;-75
2023/02/04 10:57:27;;;;;;;13.48;2.65;;;;;16.50;103493.00;;;;5074031;28;20230;-76
2023/02/04 10:59:57;;;;;;;9.75;2.08;;;;;16.60;103499.00;;;;5084001;28;20187;-76
2023/02/04 11:02:42;;;;;;;13.07;2.28;;;;;16.60;103494.00;;;;5079865;28;20659;-76
2023/02/04 11:05:14;;;;;;;6.22;1.70;;;;;16.60;103490.00;;;;5079445;28;20206;-76
2023/02/04 11:07:42;;;;;;;12.13;2.50;;;;;16.70;103507.00;;;;5076259;28;20214;-75
2023/02/04 11:10:15;;;;;;;14.50;1.85;;;;;16.70;103509.00;;;;5082900;28;20399;-76
2023/02/04 11:12:44;;;;;;;9.50;2.30;;;;;16.80;103507.00;;;;5080263;28;20206;-75
2023/02/04 11:15:44;;;;;;;5.93;1.60;;;;;16.70;103504.00;;;;5073389;28;20210;-76
2023/02/04 11:18:13;;;;;;;10.40;2.78;;;;;16.90;103501.00;;;;5068031;28;20622;-75
2023/02/04 11:20:41;;;;;;;8.77;1.85;;;;;16.90;103508.00;;;;5077499;28;20194;-75
2023/02/04 11:23:16;;;;;;;10.50;2.53;;;;;16.90;103498.00;;;;5082192;28;20286;-75
2023/02/04 11:25:45;;;;;;;7.65;1.90;;;;;17.00;103500.00;;;;5069582;28;20205;-75
2023/02/04 11:28:16;;;;;;;13.50;2.65;;;;;17.00;103499.00;;;;5074617;28;20195;-75
2023/02/04 11:30:43;;;;;;;11.70;1.98;;;;;17.10;103503.00;;;;5074175;28;20205;-75
2023/02/04 11:33:25;;;;;;;10.88;2.10;;;;;17.00;103493.00;;;;5072936;28;20198;-76
2023/02/04 11:36:03;;;;;;;6.72;1.67;;;;;17.10;103495.00;;;;5072117;28;21440;-75
2023/02/04 11:38:32;;;;;;;8.57;1.90;;;;;17.20;103486.00;;;;5076123;28;20733;-75
2023/02/04 11:41:01;;;;;;;10.70;2.10;;;;;17.20;103494.00;;;;5078509;28;20203;-75
2023/02/04 11:43:29;;;;;;;12.25;2.30;;;;;17.30;103498.00;;;;5076109;28;20203;-74
2023/02/04 11:46:09;;;;;;;10.18;2.15;;;;;17.30;103488.00;;;;5077382;28;20719;-75
2023/02/04 11:48:37;;;;;;;11.32;2.58;;;;;17.40;103493.00;;;;5067542;28;20201;-75
2023/02/04 11:51:12;;;;;;;11.15;3.10;;;;;17.40;103492.00;;;;5074576;28;20199;-76
2023/02/04 11:53:40;;;;;;;11.93;1.73;;;;;17.40;103498.00;;;;5070709;28;20202;-75
2023/02/04 11:56:17;;;;;;;7.75;2.17;;;;;17.30;103497.00;;;;5083417;28;20226;-75
2023/02/04 11:58:47;;;;;;;8.88;2.17;;;;;17.40;103490.00;;;;5078674;28;20235;-75
2023/02/04 12:01:19;;;;;;;9.57;1.77;;;;;17.40;103491.00;;;;5069997;28;20234;-74
2023/02/04 12:03:48;;;;;;;10.88;2.03;;;;;17.40;103498.00;;;;5075955;28;20199;-75
2023/02/04 12:06:22;;;;;;;10.80;2.13;;;;;17.30;103491.00;;;;5067897;28;20203;-75
2023/02/04 12:08:49;;;;;;;14.07;2.78;;;;;17.40;103502.00;;;;5067410;28;20668;-75